sensor_id;sensor_type;location;lat;lon;timestamp;temperature;humidity
1417;DHT22;703;51.162;13.574;2024-01-06T00:01:21;2.40;99.90
1417;DHT22;703;51.162;13.574;2024-01-06T00:03:47;2.30;99.90
1417;DHT22;703;51.162;13.574;2024-01-06T00:06:13;3.10;99.90
1417;DHT22;703;51.162;13.574;2024-01-06T00:08:38;1.90;99.90
1417;DHT22;703;51.162;13.574;2024-01-06T00:11:04;2.10;99.90
1417;DHT22;703;51.162;13.574;2024-01-06T00:13:29;2.10;99.90
1417;DHT22;703;51.162;13.574;2024-01-06T00:15:55;2.00;99.90
1417;DHT22;703;51.162;13.574;2024-01-06T00:18:20;2.10;99.90
1417;DHT22;703;51.162;13.574;2024-01-06T00:20:45;2.40;99.90
1417;DHT22;703;51.162;13.574;2024-01-06T00:23:11;2.00;99.90
1417;DHT22;703;51.162;13.574;2024-01-06T00:25:36;2.40;99.90
1417;DHT22;703;51.162;13.574;2024-01-06T00:28:02;3.30;99.90
1417;DHT22;703;51.162;13.574;2024-01-06T00:30:27;2.10;99.90
1417;DHT22;703;51.162;13.574;2024-01-06T00:32:53;2.00;99.90
1417;DHT22;703;51.162;13.574;2024-01-06T00:35:18;2.10;99.90
1417;DHT22;703;51.162;13.574;2024-01-06T00:37:43;2.10;99.90
1417;DHT22;703;51.162;13.574;2024-01-06T00:40:09;2.00;99.90
1417;DHT22;703;51.162;13.574;2024-01-06T00:42:34;1.70;99.90
1417;DHT22;703;51.162;13.574;2024-01-06T00:45:00;1.60;99.90
1417;DHT22;703;51.162;13.574;2024-01-06T00:47:25;1.60;99.90
1417;DHT22;703;51.162;13.574;2024-01-06T00:49:51;2.90;99.90
1417;DHT22;703;51.162;13.574;2024-01-06T00:52:16;1.50;99.90
1417;DHT22;703;51.162;13.574;2024-01-06T00:54:42;1.30;99.90
1417;DHT22;703;51.162;13.574;2024-01-06T00:57:07;1.80;99.90
1417;DHT22;703;51.162;13.574;2024-01-06T00:59:33;1.10;99.90
1417;DHT22;703;51.162;13.574;2024-01-06T01:01:58;1.00;99.90
1417;DHT22;703;51.162;13.574;2024-01-06T01:04:24;1.50;99.90
1417;DHT22;703;51.162;13.574;2024-01-06T01:06:49;1.40;99.90
1417;DHT22;703;51.162;13.574;2024-01-06T01:09:14;1.00;99.90
1417;DHT22;703;51.162;13.574;2024-01-06T01:11:40;1.20;99.90
1417;DHT22;703;51.162;13.574;2024-01-06T01:14:06;1.30;99.90
1417;DHT22;703;51.162;13.574;2024-01-06T01:16:31;2.10;99.90
1417;DHT22;703;51.162;13.574;2024-01-06T01:18:57;1.80;99.90
1417;DHT22;703;51.162;13.574;2024-01-06T01:21:23;1.30;99.90
1417;DHT22;703;51.162;13.574;2024-01-06T01:23:48;1.70;99.90
1417;DHT22;703;51.162;13.574;2024-01-06T01:26:14;1.10;99.90
1417;DHT22;703;51.162;13.574;2024-01-06T01:28:39;0.90;99.90
1417;DHT22;703;51.162;13.574;2024-01-06T01:31:05;2.10;99.90
1417;DHT22;703;51.162;13.574;2024-01-06T01:33:30;1.10;99.90
1417;DHT22;703;51.162;13.574;2024-01-06T01:35:55;2.20;99.90
1417;DHT22;703;51.162;13.574;2024-01-06T01:38:21;2.10;99.90
1417;DHT22;703;51.162;13.574;2024-01-06T01:40:46;1.10;99.90
1417;DHT22;703;51.162;13.574;2024-01-06T01:43:15;1.00;99.90
1417;DHT22;703;51.162;13.574;2024-01-06T01:45:41;1.30;99.90
1417;DHT22;703;51.162;13.574;2024-01-06T01:48:06;1.20;99.90
1417;DHT22;703;51.162;13.574;2024-01-06T01:50:32;1.10;99.90
1417;DHT22;703;51.162;13.574;2024-01-06T01:52:57;1.30;99.90
1417;DHT22;703;51.162;13.574;2024-01-06T01:55:22;1.90;99.90
1417;DHT22;703;51.162;13.574;2024-01-06T01:57:48;2.00;99.90
1417;DHT22;703;51.162;13.574;2024-01-06T02:00:13;1.10;99.90
1417;DHT22;703;51.162;13.574;2024-01-06T02:02:39;1.00;99.90
1417;DHT22;703;51.162;13.574;2024-01-06T02:05:04;0.90;99.90
1417;DHT22;703;51.162;13.574;2024-01-06T02:07:30;1.00;99.90
1417;DHT22;703;51.162;13.574;2024-01-06T02:09:55;1.20;99.90
1417;DHT22;703;51.162;13.574;2024-01-06T02:12:21;0.70;99.90
1417;DHT22;703;51.162;13.574;2024-01-06T02:14:46;-0.60;99.90
1417;DHT22;703;51.162;13.574;2024-01-06T02:17:11;0.70;99.90
1417;DHT22;703;51.162;13.574;2024-01-06T02:19:37;0.60;99.90
1417;DHT22;703;51.162;13.574;2024-01-06T02:22:02;0.70;99.90
1417;DHT22;703;51.162;13.574;2024-01-06T02:24:28;0.80;99.90
1417;DHT22;703;51.162;13.574;2024-01-06T02:26:53;0.90;99.90
1417;DHT22;703;51.162;13.574;2024-01-06T02:29:18;2.50;99.90
1417;DHT22;703;51.162;13.574;2024-01-06T02:31:44;0.80;99.90
1417;DHT22;703;51.162;13.574;2024-01-06T02:34:09;0.70;99.90
1417;DHT22;703;51.162;13.574;2024-01-06T02:36:35;1.00;99.90
1417;DHT22;703;51.162;13.574;2024-01-06T02:39:00;0.80;99.90
1417;DHT22;703;51.162;13.574;2024-01-06T02:41:26;1.00;99.90
1417;DHT22;703;51.162;13.574;2024-01-06T02:43:51;-0.10;99.90
1417;DHT22;703;51.162;13.574;2024-01-06T02:46:17;1.40;99.90
1417;DHT22;703;51.162;13.574;2024-01-06T02:48:42;0.70;99.90
1417;DHT22;703;51.162;13.574;2024-01-06T02:51:08;1.10;99.90
1417;DHT22;703;51.162;13.574;2024-01-06T02:53:33;0.60;99.90
1417;DHT22;703;51.162;13.574;2024-01-06T02:55:58;0.60;99.90
1417;DHT22;703;51.162;13.574;2024-01-06T02:58:24;1.20;99.90
1417;DHT22;703;51.162;13.574;2024-01-06T03:00:49;0.40;99.90
1417;DHT22;703;51.162;13.574;2024-01-06T03:03:15;0.50;99.90
1417;DHT22;703;51.162;13.574;2024-01-06T03:05:40;1.30;99.90
1417;DHT22;703;51.162;13.574;2024-01-06T03:08:05;0.50;99.90
1417;DHT22;703;51.162;13.574;2024-01-06T03:10:31;0.30;99.90
1417;DHT22;703;51.162;13.574;2024-01-06T03:12:56;0.30;99.90
1417;DHT22;703;51.162;13.574;2024-01-06T03:15:22;0.20;99.90
1417;DHT22;703;51.162;13.574;2024-01-06T03:17:47;0.90;99.90
1417;DHT22;703;51.162;13.574;2024-01-06T03:20:12;1.50;99.90
1417;DHT22;703;51.162;13.574;2024-01-06T03:22:38;0.20;99.90
1417;DHT22;703;51.162;13.574;2024-01-06T03:25:03;0.60;99.90
1417;DHT22;703;51.162;13.574;2024-01-06T03:27:29;0.30;99.90
1417;DHT22;703;51.162;13.574;2024-01-06T03:29:54;0.70;99.90
1417;DHT22;703;51.162;13.574;2024-01-06T03:32:20;0.20;99.90
1417;DHT22;703;51.162;13.574;2024-01-06T03:34:45;2.10;99.90
1417;DHT22;703;51.162;13.574;2024-01-06T03:37:11;0.70;99.90
1417;DHT22;703;51.162;13.574;2024-01-06T03:39:36;0.00;99.90
1417;DHT22;703;51.162;13.574;2024-01-06T03:42:01;0.10;99.90
1417;DHT22;703;51.162;13.574;2024-01-06T03:44:28;0.10;99.90
1417;DHT22;703;51.162;13.574;2024-01-06T03:46:58;0.50;99.90
1417;DHT22;703;51.162;13.574;2024-01-06T03:49:24;0.00;99.90
1417;DHT22;703;51.162;13.574;2024-01-06T03:51:50;-0.10;99.90
1417;DHT22;703;51.162;13.574;2024-01-06T03:54:15;0.50;99.90
1417;DHT22;703;51.162;13.574;2024-01-06T03:56:41;0.20;99.90
1417;DHT22;703;51.162;13.574;2024-01-06T03:59:06;0.20;99.90
1417;DHT22;703;51.162;13.574;2024-01-06T04:01:32;0.20;99.90
1417;DHT22;703;51.162;13.574;2024-01-06T04:04:04;0.70;99.90
1417;DHT22;703;51.162;13.574;2024-01-06T04:06:30;0.00;99.90
1417;DHT22;703;51.162;13.574;2024-01-06T04:08:57;0.60;99.90
1417;DHT22;703;51.162;13.574;2024-01-06T04:11:22;0.10;99.90
1417;DHT22;703;51.162;13.574;2024-01-06T04:13:48;-0.10;99.90
1417;DHT22;703;51.162;13.574;2024-01-06T04:16:13;0.70;99.90
1417;DHT22;703;51.162;13.574;2024-01-06T04:18:39;0.20;99.90
1417;DHT22;703;51.162;13.574;2024-01-06T04:21:04;0.30;99.90
1417;DHT22;703;51.162;13.574;2024-01-06T04:23:30;0.40;99.90
1417;DHT22;703;51.162;13.574;2024-01-06T04:25:55;0.60;99.90
1417;DHT22;703;51.162;13.574;2024-01-06T04:28:21;1.30;99.90
1417;DHT22;703;51.162;13.574;2024-01-06T04:30:46;0.60;99.90
1417;DHT22;703;51.162;13.574;2024-01-06T04:33:12;0.80;99.90
1417;DHT22;703;51.162;13.574;2024-01-06T04:35:37;0.90;99.90
1417;DHT22;703;51.162;13.574;2024-01-06T04:38:03;1.50;99.90
1417;DHT22;703;51.162;13.574;2024-01-06T04:40:28;0.80;99.90
1417;DHT22;703;51.162;13.574;2024-01-06T04:42:53;0.70;99.90
1417;DHT22;703;51.162;13.574;2024-01-06T04:45:19;1.30;99.90
1417;DHT22;703;51.162;13.574;2024-01-06T04:47:45;0.30;99.90
1417;DHT22;703;51.162;13.574;2024-01-06T04:50:10;0.70;99.90
1417;DHT22;703;51.162;13.574;2024-01-06T04:52:35;0.80;99.90
1417;DHT22;703;51.162;13.574;2024-01-06T04:55:01;0.70;99.90
1417;DHT22;703;51.162;13.574;2024-01-06T04:57:27;1.10;99.90
1417;DHT22;703;51.162;13.574;2024-01-06T04:59:52;0.90;99.90
1417;DHT22;703;51.162;13.574;2024-01-06T05:02:18;0.80;99.90
1417;DHT22;703;51.162;13.574;2024-01-06T05:04:43;1.40;99.90
1417;DHT22;703;51.162;13.574;2024-01-06T05:07:09;0.80;99.90
1417;DHT22;703;51.162;13.574;2024-01-06T05:09:34;-0.20;99.90
1417;DHT22;703;51.162;13.574;2024-01-06T05:12:00;0.80;99.90
1417;DHT22;703;51.162;13.574;2024-01-06T05:14:25;-0.70;99.90
1417;DHT22;703;51.162;13.574;2024-01-06T05:16:50;1.50;99.90
1417;DHT22;703;51.162;13.574;2024-01-06T05:19:16;1.80;99.90
1417;DHT22;703;51.162;13.574;2024-01-06T05:21:48;1.20;99.90
1417;DHT22;703;51.162;13.574;2024-01-06T05:24:14;1.10;99.90
1417;DHT22;703;51.162;13.574;2024-01-06T05:26:39;1.20;99.90
1417;DHT22;703;51.162;13.574;2024-01-06T05:29:05;1.10;99.90
1417;DHT22;703;51.162;13.574;2024-01-06T05:31:30;1.20;99.90
1417;DHT22;703;51.162;13.574;2024-01-06T05:33:56;1.30;99.90
1417;DHT22;703;51.162;13.574;2024-01-06T05:36:22;1.60;99.90
1417;DHT22;703;51.162;13.574;2024-01-06T05:38:48;1.10;99.90
1417;DHT22;703;51.162;13.574;2024-01-06T05:41:13;1.10;99.90
1417;DHT22;703;51.162;13.574;2024-01-06T05:43:38;1.10;99.90
1417;DHT22;703;51.162;13.574;2024-01-06T05:46:04;1.00;99.90
1417;DHT22;703;51.162;13.574;2024-01-06T05:48:29;1.70;99.90
1417;DHT22;703;51.162;13.574;2024-01-06T05:50:55;1.10;99.90
1417;DHT22;703;51.162;13.574;2024-01-06T05:53:20;1.20;99.90
1417;DHT22;703;51.162;13.574;2024-01-06T05:55:46;0.00;99.90
1417;DHT22;703;51.162;13.574;2024-01-06T05:58:11;1.10;99.90
1417;DHT22;703;51.162;13.574;2024-01-06T06:00:36;1.10;99.90
1417;DHT22;703;51.162;13.574;2024-01-06T06:03:02;1.10;99.90
1417;DHT22;703;51.162;13.574;2024-01-06T06:05:27;1.00;99.90
1417;DHT22;703;51.162;13.574;2024-01-06T06:07:53;-0.10;99.90
1417;DHT22;703;51.162;13.574;2024-01-06T06:10:19;1.00;99.90
1417;DHT22;703;51.162;13.574;2024-01-06T06:12:45;1.10;99.90
1417;DHT22;703;51.162;13.574;2024-01-06T06:15:11;1.10;99.90
1417;DHT22;703;51.162;13.574;2024-01-06T06:17:36;0.40;99.90
1417;DHT22;703;51.162;13.574;2024-01-06T06:20:02;1.30;99.90
1417;DHT22;703;51.162;13.574;2024-01-06T06:22:28;1.10;99.90
1417;DHT22;703;51.162;13.574;2024-01-06T06:24:56;1.70;99.90
1417;DHT22;703;51.162;13.574;2024-01-06T06:27:22;1.00;99.90
1417;DHT22;703;51.162;13.574;2024-01-06T06:29:47;1.80;99.90
1417;DHT22;703;51.162;13.574;2024-01-06T06:32:13;1.30;99.90
1417;DHT22;703;51.162;13.574;2024-01-06T06:34:38;1.10;99.90
1417;DHT22;703;51.162;13.574;2024-01-06T06:37:04;2.10;99.90
1417;DHT22;703;51.162;13.574;2024-01-06T06:39:29;1.10;99.90
1417;DHT22;703;51.162;13.574;2024-01-06T06:41:56;1.20;99.90
1417;DHT22;703;51.162;13.574;2024-01-06T06:44:21;1.90;99.90
1417;DHT22;703;51.162;13.574;2024-01-06T06:46:47;1.40;99.90
1417;DHT22;703;51.162;13.574;2024-01-06T06:49:12;1.30;99.90
1417;DHT22;703;51.162;13.574;2024-01-06T06:51:38;1.30;99.90
1417;DHT22;703;51.162;13.574;2024-01-06T06:54:11;0.20;99.90
1417;DHT22;703;51.162;13.574;2024-01-06T06:56:36;1.40;99.90
1417;DHT22;703;51.162;13.574;2024-01-06T06:59:02;2.30;99.90
1417;DHT22;703;51.162;13.574;2024-01-06T07:01:27;1.40;99.90
1417;DHT22;703;51.162;13.574;2024-01-06T07:03:53;1.90;99.90
1417;DHT22;703;51.162;13.574;2024-01-06T07:06:19;0.10;99.90
1417;DHT22;703;51.162;13.574;2024-01-06T07:08:44;1.40;99.90
1417;DHT22;703;51.162;13.574;2024-01-06T07:11:10;0.50;99.90
1417;DHT22;703;51.162;13.574;2024-01-06T07:13:36;1.40;99.90
1417;DHT22;703;51.162;13.574;2024-01-06T07:16:02;2.10;99.90
1417;DHT22;703;51.162;13.574;2024-01-06T07:18:27;1.60;99.90
1417;DHT22;703;51.162;13.574;2024-01-06T07:20:53;1.60;99.90
1417;DHT22;703;51.162;13.574;2024-01-06T07:23:18;1.50;99.90
1417;DHT22;703;51.162;13.574;2024-01-06T07:25:44;1.50;99.90
1417;DHT22;703;51.162;13.574;2024-01-06T07:28:09;1.60;99.90
1417;DHT22;703;51.162;13.574;2024-01-06T07:30:34;1.60;99.90
1417;DHT22;703;51.162;13.574;2024-01-06T07:33:00;1.70;99.90
1417;DHT22;703;51.162;13.574;2024-01-06T07:35:25;2.70;99.90
1417;DHT22;703;51.162;13.574;2024-01-06T07:37:51;2.00;99.90
1417;DHT22;703;51.162;13.574;2024-01-06T07:40:16;2.00;99.90
1417;DHT22;703;51.162;13.574;2024-01-06T07:42:43;1.70;99.90
1417;DHT22;703;51.162;13.574;2024-01-06T07:45:08;0.80;99.90
1417;DHT22;703;51.162;13.574;2024-01-06T07:47:34;1.60;99.90
1417;DHT22;703;51.162;13.574;2024-01-06T07:49:59;1.90;99.90
1417;DHT22;703;51.162;13.574;2024-01-06T07:52:25;1.80;99.90
1417;DHT22;703;51.162;13.574;2024-01-06T07:54:50;1.80;99.90
1417;DHT22;703;51.162;13.574;2024-01-06T07:57:16;1.90;99.90
1417;DHT22;703;51.162;13.574;2024-01-06T07:59:41;1.90;99.90
1417;DHT22;703;51.162;13.574;2024-01-06T08:02:06;2.00;99.90
1417;DHT22;703;51.162;13.574;2024-01-06T08:04:32;1.80;99.90
1417;DHT22;703;51.162;13.574;2024-01-06T08:06:57;2.00;99.90
1417;DHT22;703;51.162;13.574;2024-01-06T08:09:23;2.50;99.90
1417;DHT22;703;51.162;13.574;2024-01-06T08:11:51;2.10;99.90
1417;DHT22;703;51.162;13.574;2024-01-06T08:14:17;2.00;99.90
1417;DHT22;703;51.162;13.574;2024-01-06T08:16:43;2.60;99.90
1417;DHT22;703;51.162;13.574;2024-01-06T08:19:08;2.10;99.90
1417;DHT22;703;51.162;13.574;2024-01-06T08:21:34;2.30;99.90
1417;DHT22;703;51.162;13.574;2024-01-06T08:24:00;2.30;99.90
1417;DHT22;703;51.162;13.574;2024-01-06T08:26:25;2.20;99.90
1417;DHT22;703;51.162;13.574;2024-01-06T08:28:51;2.50;99.90
1417;DHT22;703;51.162;13.574;2024-01-06T08:33:42;2.40;99.90
1417;DHT22;703;51.162;13.574;2024-01-06T08:36:07;2.40;99.90
1417;DHT22;703;51.162;13.574;2024-01-06T08:38:34;3.10;99.90
1417;DHT22;703;51.162;13.574;2024-01-06T08:41:00;2.50;99.90
1417;DHT22;703;51.162;13.574;2024-01-06T08:43:26;2.50;99.90
1417;DHT22;703;51.162;13.574;2024-01-06T08:45:51;3.50;99.90
1417;DHT22;703;51.162;13.574;2024-01-06T08:48:17;2.60;99.90
1417;DHT22;703;51.162;13.574;2024-01-06T08:50:43;3.40;99.90
1417;DHT22;703;51.162;13.574;2024-01-06T08:53:11;2.60;99.90
1417;DHT22;703;51.162;13.574;2024-01-06T08:55:36;2.50;99.90
1417;DHT22;703;51.162;13.574;2024-01-06T08:58:01;2.50;99.90
1417;DHT22;703;51.162;13.574;2024-01-06T09:00:27;2.60;99.90
1417;DHT22;703;51.162;13.574;2024-01-06T09:02:52;2.80;99.90
1417;DHT22;703;51.162;13.574;2024-01-06T09:05:18;1.80;99.90
1417;DHT22;703;51.162;13.574;2024-01-06T09:07:43;3.20;99.90
1417;DHT22;703;51.162;13.574;2024-01-06T09:10:09;3.00;99.90
1417;DHT22;703;51.162;13.574;2024-01-06T09:12:35;3.10;99.90
1417;DHT22;703;51.162;13.574;2024-01-06T09:15:00;3.20;99.90
1417;DHT22;703;51.162;13.574;2024-01-06T09:17:26;2.10;99.90
1417;DHT22;703;51.162;13.574;2024-01-06T09:19:51;3.90;99.90
1417;DHT22;703;51.162;13.574;2024-01-06T09:22:19;3.60;99.90
1417;DHT22;703;51.162;13.574;2024-01-06T09:24:44;3.60;99.90
1417;DHT22;703;51.162;13.574;2024-01-06T09:27:09;3.60;99.90
1417;DHT22;703;51.162;13.574;2024-01-06T09:29:35;4.30;99.90
1417;DHT22;703;51.162;13.574;2024-01-06T09:32:00;3.70;99.90
1417;DHT22;703;51.162;13.574;2024-01-06T09:34:26;3.60;99.90
1417;DHT22;703;51.162;13.574;2024-01-06T09:36:51;3.60;99.90
1417;DHT22;703;51.162;13.574;2024-01-06T09:39:16;4.30;99.90
1417;DHT22;703;51.162;13.574;2024-01-06T09:41:42;4.20;99.90
1417;DHT22;703;51.162;13.574;2024-01-06T09:44:08;4.30;99.90
1417;DHT22;703;51.162;13.574;2024-01-06T09:46:33;4.20;99.90
1417;DHT22;703;51.162;13.574;2024-01-06T09:49:01;3.60;99.90
1417;DHT22;703;51.162;13.574;2024-01-06T09:51:27;4.20;99.90
1417;DHT22;703;51.162;13.574;2024-01-06T09:53:59;3.00;99.90
1417;DHT22;703;51.162;13.574;2024-01-06T09:56:25;4.10;99.90
1417;DHT22;703;51.162;13.574;2024-01-06T09:58:51;4.70;99.90
1417;DHT22;703;51.162;13.574;2024-01-06T10:01:17;4.20;99.90
1417;DHT22;703;51.162;13.574;2024-01-06T10:03:43;4.30;99.90
1417;DHT22;703;51.162;13.574;2024-01-06T10:06:08;4.20;99.90
1417;DHT22;703;51.162;13.574;2024-01-06T10:08:35;5.00;99.90
1417;DHT22;703;51.162;13.574;2024-01-06T10:11:00;4.60;99.90
1417;DHT22;703;51.162;13.574;2024-01-06T10:13:26;4.60;99.90
1417;DHT22;703;51.162;13.574;2024-01-06T10:15:52;5.20;99.90
1417;DHT22;703;51.162;13.574;2024-01-06T10:18:19;5.60;99.90
1417;DHT22;703;51.162;13.574;2024-01-06T10:20:44;4.60;99.90
1417;DHT22;703;51.162;13.574;2024-01-06T10:23:11;4.90;99.90
1417;DHT22;703;51.162;13.574;2024-01-06T10:25:39;4.80;99.90
1417;DHT22;703;51.162;13.574;2024-01-06T10:28:11;4.70;99.90
1417;DHT22;703;51.162;13.574;2024-01-06T10:30:37;4.70;99.90
1417;DHT22;703;51.162;13.574;2024-01-06T10:33:07;4.60;99.90
1417;DHT22;703;51.162;13.574;2024-01-06T10:35:33;4.60;99.90
1417;DHT22;703;51.162;13.574;2024-01-06T10:40:24;4.60;99.90
1417;DHT22;703;51.162;13.574;2024-01-06T10:42:52;4.70;99.90
1417;DHT22;703;51.162;13.574;2024-01-06T10:45:18;4.70;99.90
1417;DHT22;703;51.162;13.574;2024-01-06T10:47:44;4.70;99.90
1417;DHT22;703;51.162;13.574;2024-01-06T10:50:10;4.60;99.90
1417;DHT22;703;51.162;13.574;2024-01-06T10:52:37;4.70;99.90
1417;DHT22;703;51.162;13.574;2024-01-06T10:55:02;4.60;99.90
1417;DHT22;703;51.162;13.574;2024-01-06T10:57:29;4.50;99.90
1417;DHT22;703;51.162;13.574;2024-01-06T10:59:57;4.60;99.90
1417;DHT22;703;51.162;13.574;2024-01-06T11:02:23;4.50;99.90
1417;DHT22;703;51.162;13.574;2024-01-06T11:04:50;4.90;99.90
1417;DHT22;703;51.162;13.574;2024-01-06T11:07:16;4.50;99.90
1417;DHT22;703;51.162;13.574;2024-01-06T11:09:44;4.40;99.90
1417;DHT22;703;51.162;13.574;2024-01-06T11:12:12;4.40;99.90
1417;DHT22;703;51.162;13.574;2024-01-06T11:14:38;5.00;99.90
1417;DHT22;703;51.162;13.574;2024-01-06T11:17:03;4.50;99.90
1417;DHT22;703;51.162;13.574;2024-01-06T11:24:52;4.50;99.90
1417;DHT22;703;51.162;13.574;2024-01-06T11:27:22;4.50;99.90
1417;DHT22;703;51.162;13.574;2024-01-06T11:29:48;4.60;99.90
1417;DHT22;703;51.162;13.574;2024-01-06T11:34:52;4.60;99.90
1417;DHT22;703;51.162;13.574;2024-01-06T11:37:19;4.70;99.90
1417;DHT22;703;51.162;13.574;2024-01-06T11:39:44;4.80;99.90
1417;DHT22;703;51.162;13.574;2024-01-06T11:42:10;4.70;99.90
1417;DHT22;703;51.162;13.574;2024-01-06T11:44:37;4.70;99.90
1417;DHT22;703;51.162;13.574;2024-01-06T11:47:02;4.80;99.90
1417;DHT22;703;51.162;13.574;2024-01-06T11:49:29;4.80;99.90
1417;DHT22;703;51.162;13.574;2024-01-06T11:51:54;4.40;99.90
1417;DHT22;703;51.162;13.574;2024-01-06T11:54:21;4.30;99.90
1417;DHT22;703;51.162;13.574;2024-01-06T11:56:46;4.20;99.90
1417;DHT22;703;51.162;13.574;2024-01-06T11:59:12;4.20;99.90
1417;DHT22;703;51.162;13.574;2024-01-06T12:01:38;4.10;99.90
1417;DHT22;703;51.162;13.574;2024-01-06T12:04:03;4.00;99.90
1417;DHT22;703;51.162;13.574;2024-01-06T12:06:30;4.20;99.90
1417;DHT22;703;51.162;13.574;2024-01-06T12:09:03;3.90;99.90
1417;DHT22;703;51.162;13.574;2024-01-06T12:11:28;3.90;99.90
1417;DHT22;703;51.162;13.574;2024-01-06T12:13:54;3.70;99.90
1417;DHT22;703;51.162;13.574;2024-01-06T12:16:19;3.80;99.90
1417;DHT22;703;51.162;13.574;2024-01-06T12:18:45;3.90;99.90
1417;DHT22;703;51.162;13.574;2024-01-06T12:21:10;3.90;99.90
1417;DHT22;703;51.162;13.574;2024-01-06T12:23:36;3.90;99.90
1417;DHT22;703;51.162;13.574;2024-01-06T12:26:01;2.60;99.90
1417;DHT22;703;51.162;13.574;2024-01-06T12:28:27;3.60;99.90
1417;DHT22;703;51.162;13.574;2024-01-06T12:30:53;3.60;99.90
1417;DHT22;703;51.162;13.574;2024-01-06T12:33:19;3.60;99.90
1417;DHT22;703;51.162;13.574;2024-01-06T12:35:44;3.60;99.90
1417;DHT22;703;51.162;13.574;2024-01-06T12:38:10;3.40;99.90
1417;DHT22;703;51.162;13.574;2024-01-06T12:40:35;4.10;99.90
1417;DHT22;703;51.162;13.574;2024-01-06T12:43:02;3.50;99.90
1417;DHT22;703;51.162;13.574;2024-01-06T12:45:27;3.80;99.90
1417;DHT22;703;51.162;13.574;2024-01-06T12:47:54;3.40;99.90
1417;DHT22;703;51.162;13.574;2024-01-06T12:50:19;3.40;99.90
1417;DHT22;703;51.162;13.574;2024-01-06T12:52:45;3.30;99.90
1417;DHT22;703;51.162;13.574;2024-01-06T12:55:11;3.20;99.90
1417;DHT22;703;51.162;13.574;2024-01-06T12:57:36;3.30;99.90
1417;DHT22;703;51.162;13.574;2024-01-06T13:00:02;3.20;99.90
1417;DHT22;703;51.162;13.574;2024-01-06T13:02:28;3.30;99.90
1417;DHT22;703;51.162;13.574;2024-01-06T13:04:53;3.50;99.90
1417;DHT22;703;51.162;13.574;2024-01-06T13:07:20;3.40;99.90
1417;DHT22;703;51.162;13.574;2024-01-06T13:09:45;3.40;99.90
1417;DHT22;703;51.162;13.574;2024-01-06T13:12:11;3.40;99.90
1417;DHT22;703;51.162;13.574;2024-01-06T13:14:36;3.30;99.90
1417;DHT22;703;51.162;13.574;2024-01-06T13:17:03;3.70;99.90
1417;DHT22;703;51.162;13.574;2024-01-06T13:19:28;3.80;99.90
1417;DHT22;703;51.162;13.574;2024-01-06T13:21:54;3.30;99.90
1417;DHT22;703;51.162;13.574;2024-01-06T13:24:19;2.90;99.90
1417;DHT22;703;51.162;13.574;2024-01-06T13:26:45;3.50;99.90
1417;DHT22;703;51.162;13.574;2024-01-06T13:29:10;3.40;99.90
1417;DHT22;703;51.162;13.574;2024-01-06T13:31:36;3.40;99.90
1417;DHT22;703;51.162;13.574;2024-01-06T13:34:02;3.30;99.90
1417;DHT22;703;51.162;13.574;2024-01-06T13:36:27;3.30;99.90
1417;DHT22;703;51.162;13.574;2024-01-06T13:38:53;3.20;99.90
1417;DHT22;703;51.162;13.574;2024-01-06T13:41:18;3.20;99.90
1417;DHT22;703;51.162;13.574;2024-01-06T13:43:44;3.20;99.90
1417;DHT22;703;51.162;13.574;2024-01-06T13:46:13;3.80;99.90
1417;DHT22;703;51.162;13.574;2024-01-06T13:48:41;3.10;99.90
1417;DHT22;703;51.162;13.574;2024-01-06T13:51:06;3.00;99.90
1417;DHT22;703;51.162;13.574;2024-01-06T13:53:32;3.10;99.90
1417;DHT22;703;51.162;13.574;2024-01-06T13:55:58;3.00;99.90
1417;DHT22;703;51.162;13.574;2024-01-06T13:58:23;3.00;99.90
1417;DHT22;703;51.162;13.574;2024-01-06T14:00:49;3.00;99.90
1417;DHT22;703;51.162;13.574;2024-01-06T14:03:15;2.90;99.90
1417;DHT22;703;51.162;13.574;2024-01-06T14:05:40;2.00;99.90
1417;DHT22;703;51.162;13.574;2024-01-06T14:08:06;2.90;99.90
1417;DHT22;703;51.162;13.574;2024-01-06T14:10:31;2.90;99.90
1417;DHT22;703;51.162;13.574;2024-01-06T14:12:57;2.90;99.90
1417;DHT22;703;51.162;13.574;2024-01-06T14:15:23;2.80;99.90
1417;DHT22;703;51.162;13.574;2024-01-06T14:17:48;2.80;99.90
1417;DHT22;703;51.162;13.574;2024-01-06T14:20:14;2.80;99.90
1417;DHT22;703;51.162;13.574;2024-01-06T14:22:48;2.70;99.90
1417;DHT22;703;51.162;13.574;2024-01-06T14:25:14;2.70;99.90
1417;DHT22;703;51.162;13.574;2024-01-06T14:27:43;2.60;99.90
1417;DHT22;703;51.162;13.574;2024-01-06T14:30:08;2.60;99.90
1417;DHT22;703;51.162;13.574;2024-01-06T14:32:35;2.70;99.90
1417;DHT22;703;51.162;13.574;2024-01-06T14:35:03;2.60;99.90
1417;DHT22;703;51.162;13.574;2024-01-06T14:37:28;2.40;99.90
1417;DHT22;703;51.162;13.574;2024-01-06T14:39:54;2.40;99.90
1417;DHT22;703;51.162;13.574;2024-01-06T14:42:19;2.40;99.90
1417;DHT22;703;51.162;13.574;2024-01-06T14:44:45;2.40;99.90
1417;DHT22;703;51.162;13.574;2024-01-06T14:47:10;2.40;99.90
1417;DHT22;703;51.162;13.574;2024-01-06T14:49:37;2.40;99.90
1417;DHT22;703;51.162;13.574;2024-01-06T14:52:04;2.30;99.90
1417;DHT22;703;51.162;13.574;2024-01-06T14:54:29;2.30;99.90
1417;DHT22;703;51.162;13.574;2024-01-06T14:56:56;2.40;99.90
1417;DHT22;703;51.162;13.574;2024-01-06T14:59:23;2.30;99.90
1417;DHT22;703;51.162;13.574;2024-01-06T15:01:48;2.30;99.90
1417;DHT22;703;51.162;13.574;2024-01-06T15:04:14;1.60;99.90
1417;DHT22;703;51.162;13.574;2024-01-06T15:06:40;2.10;99.90
1417;DHT22;703;51.162;13.574;2024-01-06T15:09:05;2.10;99.90
1417;DHT22;703;51.162;13.574;2024-01-06T15:11:31;2.10;99.90
1417;DHT22;703;51.162;13.574;2024-01-06T15:13:56;3.40;99.90
1417;DHT22;703;51.162;13.574;2024-01-06T15:16:22;1.60;99.90
1417;DHT22;703;51.162;13.574;2024-01-06T15:18:47;2.20;99.90
1417;DHT22;703;51.162;13.574;2024-01-06T15:21:13;2.20;99.90
1417;DHT22;703;51.162;13.574;2024-01-06T15:23:40;2.20;99.90
1417;DHT22;703;51.162;13.574;2024-01-06T15:26:05;1.20;99.90
1417;DHT22;703;51.162;13.574;2024-01-06T15:28:31;2.40;99.90
1417;DHT22;703;51.162;13.574;2024-01-06T15:30:56;2.10;99.90
1417;DHT22;703;51.162;13.574;2024-01-06T15:33:23;2.10;99.90
1417;DHT22;703;51.162;13.574;2024-01-06T15:35:48;2.50;99.90
1417;DHT22;703;51.162;13.574;2024-01-06T15:38:13;1.80;99.90
1417;DHT22;703;51.162;13.574;2024-01-06T15:40:39;1.70;99.90
1417;DHT22;703;51.162;13.574;2024-01-06T15:43:05;2.10;99.90
1417;DHT22;703;51.162;13.574;2024-01-06T15:45:30;1.40;99.90
1417;DHT22;703;51.162;13.574;2024-01-06T15:47:55;2.10;99.90
1417;DHT22;703;51.162;13.574;2024-01-06T15:50:21;2.60;99.90
1417;DHT22;703;51.162;13.574;2024-01-06T15:52:46;2.00;99.90
1417;DHT22;703;51.162;13.574;2024-01-06T15:55:13;2.60;99.90
1417;DHT22;703;51.162;13.574;2024-01-06T15:57:38;1.90;99.90
1417;DHT22;703;51.162;13.574;2024-01-06T16:00:05;2.40;99.90
1417;DHT22;703;51.162;13.574;2024-01-06T16:02:30;2.10;99.90
1417;DHT22;703;51.162;13.574;2024-01-06T16:04:57;2.40;99.90
1417;DHT22;703;51.162;13.574;2024-01-06T16:07:22;2.80;99.90
1417;DHT22;703;51.162;13.574;2024-01-06T16:09:48;1.30;99.90
1417;DHT22;703;51.162;13.574;2024-01-06T16:12:13;2.10;99.90
1417;DHT22;703;51.162;13.574;2024-01-06T16:14:40;2.10;99.90
1417;DHT22;703;51.162;13.574;2024-01-06T16:17:05;2.10;99.90
1417;DHT22;703;51.162;13.574;2024-01-06T16:19:31;2.00;99.90